Station Historical Data
Daily Summary for February 23, 2012 Units:  English    Metric   Both
« Previous Day
Next Day »
Daily Weekly Monthly Yearly Custom
  High: Low: Average:
Temperature: 79.2 °F 53.3 °F 64.4 °F
Dew Point: 61.0 °F 49.9 °F 55.9 °F
Humidity: 96% 36% 77%
Wind Speed: 23.0mph 1.0mph 7.8mph
Wind Gust: 34.0mph - -
Wind- - South
Pressure: 29.58 in 29.37 in -
Precipitation: 0.00 in    
Historical Graphs
 
 
Tabular Data for February 23, 2012
Time Temperature Dew Point Pressure Wind Wind Speed Wind Gust Humidity Rainfall Rate (Hourly) Conditions
00:00 56.3 °F 54.0 °F 29.57 in SSE 3.0 mph 5.0 mph 92% 0.00 in
00:05 56.3 °F 54.3 °F 29.57 in SSW 4.0 mph 6.0 mph 93% 0.00 in
00:10 56.3 °F 54.3 °F 29.57 in South 5.0 mph 5.0 mph 93% 0.00 in
00:15 56.3 °F 54.0 °F 29.56 in South 3.0 mph 7.0 mph 92% 0.00 in
00:20 56.3 °F 54.3 °F 29.56 in SSW 4.0 mph 5.0 mph 93% 0.00 in
00:25 56.2 °F 53.9 °F 29.56 in SSW 2.0 mph 3.0 mph 92% 0.00 in
00:30 56.2 °F 54.2 °F 29.56 in SSE 3.0 mph 5.0 mph 93% 0.00 in
00:35 56.2 °F 53.9 °F 29.56 in SSW 6.0 mph 6.0 mph 92% 0.00 in
00:40 56.3 °F 54.0 °F 29.56 in SW 5.0 mph 7.0 mph 92% 0.00 in
00:45 56.4 °F 54.1 °F 29.56 in SSW 9.0 mph 9.0 mph 92% 0.00 in
00:51 56.5 °F 54.2 °F 29.56 in SSW 6.0 mph 7.0 mph 92% 0.00 in
00:56 56.6 °F 54.3 °F 29.56 in SSW 6.0 mph 8.0 mph 92% 0.00 in
01:01 56.4 °F 53.8 °F 29.56 in SW 7.0 mph 7.0 mph 91% 0.00 in
01:06 56.3 °F 54.0 °F 29.56 in SSW 3.0 mph 6.0 mph 92% 0.00 in
01:11 56.1 °F 53.8 °F 29.56 in WSW 8.0 mph 8.0 mph 92% 0.00 in
01:16 55.8 °F 53.5 °F 29.56 in SSW 5.0 mph 7.0 mph 92% 0.00 in
01:21 55.7 °F 53.7 °F 29.56 in SW 4.0 mph 8.0 mph 93% 0.00 in
01:26 55.6 °F 53.6 °F 29.56 in SW 4.0 mph 7.0 mph 93% 0.00 in
01:31 55.7 °F 53.7 °F 29.56 in South 4.0 mph 8.0 mph 93% 0.00 in
01:36 55.6 °F 53.6 °F 29.56 in WSW 4.0 mph 7.0 mph 93% 0.00 in
01:41 55.5 °F 53.5 °F 29.56 in SW 4.0 mph 6.0 mph 93% 0.00 in
01:46 55.4 °F 53.4 °F 29.57 in SW 3.0 mph 7.0 mph 93% 0.00 in
01:51 55.4 °F 53.4 °F 29.57 in SSW 4.0 mph 6.0 mph 93% 0.00 in
01:56 55.2 °F 53.2 °F 29.58 in WSW 3.0 mph 5.0 mph 93% 0.00 in
02:01 55.5 °F 53.8 °F 29.58 in WSW 6.0 mph 8.0 mph 94% 0.00 in
02:06 55.6 °F 53.6 °F 29.58 in WSW 6.0 mph 7.0 mph 93% 0.00 in
02:11 55.7 °F 53.7 °F 29.58 in SW 6.0 mph 8.0 mph 93% 0.00 in
02:16 55.8 °F 53.8 °F 29.58 in West 5.0 mph 8.0 mph 93% 0.00 in
02:21 56.0 °F 54.0 °F 29.58 in SW 7.0 mph 9.0 mph 93% 0.00 in
02:26 56.0 °F 54.0 °F 29.58 in WSW 6.0 mph 10.0 mph 93% 0.00 in
02:31 56.1 °F 54.1 °F 29.58 in SW 5.0 mph 9.0 mph 93% 0.00 in
02:36 56.4 °F 54.4 °F 29.58 in SW 6.0 mph 11.0 mph 93% 0.00 in
02:41 56.3 °F 54.3 °F 29.58 in SW 10.0 mph 10.0 mph 93% 0.00 in
02:46 56.5 °F 54.5 °F 29.57 in WSW 6.0 mph 9.0 mph 93% 0.00 in
02:51 56.5 °F 54.5 °F 29.57 in SW 4.0 mph 8.0 mph 93% 0.00 in
02:56 56.4 °F 54.4 °F 29.57 in SW 6.0 mph 7.0 mph 93% 0.00 in
03:01 56.5 °F 54.5 °F 29.57 in SW 4.0 mph 7.0 mph 93% 0.00 in
03:06 56.5 °F 54.5 °F 29.57 in WSW 4.0 mph 8.0 mph 93% 0.00 in
03:11 56.4 °F 54.4 °F 29.57 in WSW 4.0 mph 7.0 mph 93% 0.00 in
03:16 56.4 °F 54.4 °F 29.57 in SW 6.0 mph 7.0 mph 93% 0.00 in
03:21 56.5 °F 54.5 °F 29.57 in SW 5.0 mph 8.0 mph 93% 0.00 in
03:26 56.5 °F 54.5 °F 29.57 in WSW 4.0 mph 9.0 mph 93% 0.00 in
03:32 56.6 °F 54.6 °F 29.57 in WSW 4.0 mph 8.0 mph 93% 0.00 in
03:37 56.8 °F 54.8 °F 29.57 in SW 4.0 mph 10.0 mph 93% 0.00 in
03:42 56.7 °F 54.7 °F 29.57 in WSW 5.0 mph 8.0 mph 93% 0.00 in
03:47 56.6 °F 54.6 °F 29.57 in WSW 5.0 mph 7.0 mph 93% 0.00 in
03:52 56.3 °F 54.3 °F 29.57 in SW 3.0 mph 6.0 mph 93% 0.00 in
03:57 56.2 °F 54.2 °F 29.57 in SW 4.0 mph 6.0 mph 93% 0.00 in
04:02 56.1 °F 54.4 °F 29.57 in West 4.0 mph 6.0 mph 94% 0.00 in
04:07 56.0 °F 54.0 °F 29.57 in SW 2.0 mph 7.0 mph 93% 0.00 in
04:12 55.7 °F 53.7 °F 29.57 in WSW 2.0 mph 7.0 mph 93% 0.00 in
04:17 55.7 °F 54.0 °F 29.57 in SW 3.0 mph 6.0 mph 94% 0.00 in
04:22 55.7 °F 54.0 °F 29.57 in SW 3.0 mph 5.0 mph 94% 0.00 in
04:27 55.6 °F 53.9 °F 29.57 in SW 4.0 mph 4.0 mph 94% 0.00 in
04:32 55.1 °F 53.4 °F 29.56 in SSW 2.0 mph 4.0 mph 94% 0.00 in
04:38 54.9 °F 53.2 °F 29.56 in SW 3.0 mph 4.0 mph 94% 0.00 in
04:43 54.9 °F 53.5 °F 29.57 in SSW 1.0 mph 3.0 mph 95% 0.00 in
04:48 54.9 °F 53.5 °F 29.57 in SSW 4.0 mph 4.0 mph 95% 0.00 in
04:53 54.9 °F 53.5 °F 29.56 in SE 1.0 mph 4.0 mph 95% 0.00 in
04:58 54.9 °F 53.5 °F 29.55 in SSE 2.0 mph 4.0 mph 95% 0.00 in
05:03 54.7 °F 53.3 °F 29.55 in SSE 4.0 mph 4.0 mph 95% 0.00 in
05:08 54.5 °F 53.1 °F 29.55 in SSE 3.0 mph 4.0 mph 95% 0.00 in
05:13 54.5 °F 53.1 °F 29.55 in SSE 2.0 mph 4.0 mph 95% 0.00 in
05:18 54.3 °F 52.9 °F 29.56 in SSE 2.0 mph 3.0 mph 95% 0.00 in
05:23 54.2 °F 52.8 °F 29.57 in SSE 2.0 mph 3.0 mph 95% 0.00 in
05:28 54.5 °F 53.1 °F 29.57 in SSE 2.0 mph 3.0 mph 95% 0.00 in
05:33 54.2 °F 52.8 °F 29.57 in South 4.0 mph 4.0 mph 95% 0.00 in
05:38 54.1 °F 52.7 °F 29.57 in SE 2.0 mph 2.0 mph 95% 0.00 in
05:43 54.3 °F 52.9 °F 29.56 in SE 1.0 mph 2.0 mph 95% 0.00 in
05:48 54.5 °F 53.1 °F 29.56 in ESE 1.0 mph 2.0 mph 95% 0.00 in
05:53 54.3 °F 52.9 °F 29.57 in SE 2.0 mph 2.0 mph 95% 0.00 in
05:58 54.2 °F 52.8 °F 29.56 in SE 2.0 mph 2.0 mph 95% 0.00 in
06:03 54.4 °F 53.0 °F 29.57 in SE 3.0 mph 3.0 mph 95% 0.00 in
06:08 54.2 °F 52.8 °F 29.57 in SE 2.0 mph 3.0 mph 95% 0.00 in
06:13 54.2 °F 52.8 °F 29.57 in SSE 5.0 mph 6.0 mph 95% 0.00 in
06:18 53.9 °F 52.5 °F 29.57 in SSE 5.0 mph 6.0 mph 95% 0.00 in
06:23 53.5 °F 52.1 °F 29.57 in SE 4.0 mph 5.0 mph 95% 0.00 in
06:28 53.3 °F 51.9 °F 29.57 in South 5.0 mph 8.0 mph 95% 0.00 in
06:33 53.3 °F 51.9 °F 29.57 in SSE 5.0 mph 7.0 mph 95% 0.00 in
06:38 53.4 °F 52.3 °F 29.57 in SSE 6.0 mph 7.0 mph 96% 0.00 in
06:43 53.7 °F 52.6 °F 29.57 in SSE 4.0 mph 6.0 mph 96% 0.00 in
06:48 53.8 °F 52.7 °F 29.57 in SE 6.0 mph 8.0 mph 96% 0.00 in
06:53 53.7 °F 52.6 °F 29.57 in SSE 5.0 mph 7.0 mph 96% 0.00 in
06:58 53.7 °F 52.6 °F 29.57 in SSE 4.0 mph 7.0 mph 96% 0.00 in
07:03 53.8 °F 52.7 °F 29.57 in SSE 4.0 mph 6.0 mph 96% 0.00 in
07:09 54.1 °F 53.0 °F 29.57 in SE 3.0 mph 5.0 mph 96% 0.00 in
07:14 54.3 °F 53.2 °F 29.57 in South 5.0 mph 6.0 mph 96% 0.00 in
07:19 54.6 °F 53.5 °F 29.57 in SSE 4.0 mph 8.0 mph 96% 0.00 in
07:24 54.7 °F 53.6 °F 29.56 in SSE 3.0 mph 5.0 mph 96% 0.00 in
07:29 54.8 °F 53.7 °F 29.56 in SSE 6.0 mph 6.0 mph 96% 0.00 in
07:34 54.9 °F 53.8 °F 29.56 in SE 4.0 mph 6.0 mph 96% 0.00 in
07:39 55.0 °F 53.9 °F 29.56 in SSE 3.0 mph 4.0 mph 96% 0.00 in
07:44 54.9 °F 53.8 °F 29.56 in SE 5.0 mph 6.0 mph 96% 0.00 in
07:49 54.9 °F 53.8 °F 29.56 in SE 3.0 mph 5.0 mph 96% 0.00 in
07:54 54.9 °F 53.8 °F 29.56 in SSE 2.0 mph 4.0 mph 96% 0.00 in
07:59 55.0 °F 53.9 °F 29.56 in SSE 2.0 mph 5.0 mph 96% 0.00 in
08:04 55.0 °F 53.9 °F 29.57 in South 5.0 mph 6.0 mph 96% 0.00 in
08:09 55.1 °F 54.0 °F 29.57 in SSE 4.0 mph 6.0 mph 96% 0.00 in
08:14 55.2 °F 54.1 °F 29.57 in SSE 3.0 mph 8.0 mph 96% 0.00 in
08:19 55.3 °F 54.2 °F 29.57 in SSE 5.0 mph 6.0 mph 96% 0.00 in
08:24 55.3 °F 54.2 °F 29.57 in SSW 4.0 mph 7.0 mph 96% 0.00 in
08:29 55.4 °F 54.3 °F 29.58 in SE 4.0 mph 8.0 mph 96% 0.00 in
08:34 55.5 °F 54.4 °F 29.58 in SSE 7.0 mph 9.0 mph 96% 0.00 in
08:39 55.7 °F 54.6 °F 29.58 in SSE 4.0 mph 8.0 mph 96% 0.00 in
08:44 55.8 °F 54.7 °F 29.58 in South 6.0 mph 7.0 mph 96% 0.00 in
08:49 56.1 °F 55.0 °F 29.58 in SE 5.0 mph 8.0 mph 96% 0.00 in
08:54 56.2 °F 55.1 °F 29.58 in SSE 6.0 mph 11.0 mph 96% 0.00 in
08:59 56.2 °F 55.1 °F 29.58 in SSE 4.0 mph 9.0 mph 96% 0.00 in
09:04 56.4 °F 55.3 °F 29.58 in SE 7.0 mph 10.0 mph 96% 0.00 in
09:09 56.9 °F 55.8 °F 29.58 in SSE 5.0 mph 12.0 mph 96% 0.00 in
09:14 56.7 °F 55.6 °F 29.58 in SE 9.0 mph 12.0 mph 96% 0.00 in
09:19 56.7 °F 55.6 °F 29.58 in SSE 8.0 mph 12.0 mph 96% 0.00 in
09:24 56.8 °F 55.7 °F 29.58 in SSW 9.0 mph 17.0 mph 96% 0.00 in
09:29 56.8 °F 55.7 °F 29.58 in SE 7.0 mph 13.0 mph 96% 0.00 in
09:34 57.0 °F 55.9 °F 29.58 in SSE 10.0 mph 13.0 mph 96% 0.00 in
09:39 57.2 °F 56.1 °F 29.58 in SSE 9.0 mph 12.0 mph 96% 0.00 in
09:44 57.3 °F 56.2 °F 29.58 in SSE 12.0 mph 12.0 mph 96% 0.00 in
09:49 57.5 °F 56.4 °F 29.57 in SSE 9.0 mph 13.0 mph 96% 0.00 in
09:54 57.6 °F 56.5 °F 29.58 in SE 11.0 mph 15.0 mph 96% 0.00 in
09:59 57.8 °F 56.7 °F 29.57 in SE 13.0 mph 14.0 mph 96% 0.00 in
10:04 58.0 °F 56.6 °F 29.57 in SSE 10.0 mph 15.0 mph 95% 0.00 in
10:09 58.4 °F 57.0 °F 29.56 in SSE 11.0 mph 14.0 mph 95% 0.00 in
10:14 58.9 °F 57.2 °F 29.56 in SSE 11.0 mph 14.0 mph 94% 0.00 in
10:19 59.3 °F 57.6 °F 29.56 in South 12.0 mph 13.0 mph 94% 0.00 in
10:24 59.5 °F 57.5 °F 29.56 in SSE 14.0 mph 18.0 mph 93% 0.00 in
10:29 59.9 °F 57.6 °F 29.56 in SSE 10.0 mph 16.0 mph 92% 0.00 in
10:34 60.5 °F 58.5 °F 29.56 in SE 8.0 mph 11.0 mph 93% 0.00 in
10:40 60.7 °F 58.1 °F 29.56 in SSE 9.0 mph 13.0 mph 91% 0.00 in
10:45 60.9 °F 58.3 °F 29.56 in SSE 13.0 mph 14.0 mph 91% 0.00 in
10:50 61.1 °F 58.2 °F 29.56 in SE 13.0 mph 15.0 mph 90% 0.00 in
10:55 61.2 °F 58.2 °F 29.56 in SSE 6.0 mph 16.0 mph 90% 0.00 in
11:00 61.4 °F 58.5 °F 29.55 in SE 12.0 mph 14.0 mph 90% 0.00 in
11:05 61.6 °F 58.3 °F 29.55 in SSE 11.0 mph 18.0 mph 89% 0.00 in
11:10 62.0 °F 58.7 °F 29.55 in SE 7.0 mph 13.0 mph 89% 0.00 in
11:15 62.4 °F 58.8 °F 29.55 in South 12.0 mph 19.0 mph 88% 0.00 in
11:20 62.6 °F 59.0 °F 29.54 in SSW 8.0 mph 17.0 mph 88% 0.00 in
11:25 62.8 °F 58.9 °F 29.54 in SSE 8.0 mph 14.0 mph 87% 0.00 in
11:30 63.2 °F 59.3 °F 29.54 in SSE 7.0 mph 13.0 mph 87% 0.00 in
11:35 63.5 °F 59.2 °F 29.54 in South 7.0 mph 17.0 mph 86% 0.00 in
11:40 64.0 °F 59.7 °F 29.53 in SSE 12.0 mph 19.0 mph 86% 0.00 in
11:45 65.0 °F 59.7 °F 29.52 in SE 18.0 mph 20.0 mph 83% 0.00 in
11:50 65.1 °F 60.2 °F 29.51 in SE 10.0 mph 17.0 mph 84% 0.00 in
11:55 65.5 °F 59.9 °F 29.51 in SSW 11.0 mph 15.0 mph 82% 0.00 in
11:56 65.5 °F 59.9 °F 29.51 in SSE 12.0 mph 15.0 mph 82% 0.00 in
12:01 65.6 °F 60.0 °F 29.50 in SSE 9.0 mph 22.0 mph 82% 0.00 in
12:06 66.2 °F 60.2 °F 29.50 in SSE 15.0 mph 15.0 mph 81% 0.00 in
12:11 66.4 °F 60.7 °F 29.50 in SE 17.0 mph 23.0 mph 82% 0.00 in
12:16 67.1 °F 60.4 °F 29.50 in SSE 12.0 mph 22.0 mph 79% 0.00 in
12:21 67.3 °F 60.6 °F 29.49 in SE 16.0 mph 20.0 mph 79% 0.00 in
12:26 67.6 °F 60.5 °F 29.49 in South 13.0 mph 25.0 mph 78% 0.00 in
12:31 67.9 °F 60.8 °F 29.49 in SSE 17.0 mph 25.0 mph 78% 0.00 in
12:36 68.3 °F 60.1 °F 29.49 in SSW 13.0 mph 25.0 mph 75% 0.00 in
12:41 68.7 °F 60.8 °F 29.49 in South 13.0 mph 23.0 mph 76% 0.00 in
12:46 69.2 °F 61.0 °F 29.48 in South 17.0 mph 20.0 mph 75% 0.00 in
12:47 69.3 °F 61.0 °F 29.48 in South 18.0 mph 20.0 mph 75% 0.00 in
12:52 69.4 °F 60.8 °F 29.48 in SSW 11.0 mph 24.0 mph 74% 0.00 in
12:57 69.4 °F 60.4 °F 29.47 in SSE 14.0 mph 21.0 mph 73% 0.00 in
13:02 69.8 °F 60.8 °F 29.47 in SSE 15.0 mph 27.0 mph 73% 0.00 in
13:07 70.2 °F 60.8 °F 29.46 in SE 18.0 mph 26.0 mph 72% 0.00 in
13:12 70.4 °F 60.2 °F 29.46 in SE 14.0 mph 22.0 mph 70% 0.00 in
13:17 70.7 °F 60.0 °F 29.45 in South 14.0 mph 23.0 mph 69% 0.00 in
13:22 71.2 °F 59.7 °F 29.45 in South 20.0 mph 23.0 mph 67% 0.00 in
13:27 71.1 °F 59.2 °F 29.44 in South 10.0 mph 24.0 mph 66% 0.00 in
13:32 71.5 °F 59.1 °F 29.43 in SSE 11.0 mph 20.0 mph 65% 0.00 in
13:37 71.7 °F 59.3 °F 29.43 in South 16.0 mph 25.0 mph 65% 0.00 in
13:42 72.1 °F 59.7 °F 29.43 in SSE 19.0 mph 19.0 mph 65% 0.00 in
13:47 72.1 °F 57.9 °F 29.42 in SSW 14.0 mph 29.0 mph 61% 0.00 in
13:52 72.2 °F 58.9 °F 29.43 in SSW 12.0 mph 21.0 mph 63% 0.00 in
13:58 72.4 °F 58.2 °F 29.43 in SSE 12.0 mph 19.0 mph 61% 0.00 in
14:03 72.7 °F 58.9 °F 29.42 in South 14.0 mph 21.0 mph 62% 0.00 in
14:08 73.1 °F 58.4 °F 29.42 in SSE 20.0 mph 20.0 mph 60% 0.00 in
14:13 73.3 °F 57.7 °F 29.42 in SSW 18.0 mph 24.0 mph 58% 0.00 in
14:18 73.4 °F 57.3 °F 29.42 in SSW 8.0 mph 21.0 mph 57% 0.00 in
14:23 73.6 °F 57.9 °F 29.42 in SSE 15.0 mph 22.0 mph 58% 0.00 in
14:28 74.0 °F 57.8 °F 29.41 in WSW 23.0 mph 23.0 mph 57% 0.00 in
14:33 73.9 °F 56.2 °F 29.41 in South 14.0 mph 34.0 mph 54% 0.00 in
14:38 73.9 °F 56.7 °F 29.41 in SW 18.0 mph 24.0 mph 55% 0.00 in
14:43 74.2 °F 56.5 °F 29.40 in SE 22.0 mph 22.0 mph 54% 0.00 in
14:48 74.5 °F 57.3 °F 29.40 in South 14.0 mph 20.0 mph 55% 0.00 in
14:53 74.7 °F 57.5 °F 29.40 in South 8.0 mph 21.0 mph 55% 0.00 in
14:58 75.0 °F 56.7 °F 29.39 in SE 18.0 mph 23.0 mph 53% 0.00 in
15:03 75.3 °F 57.0 °F 29.39 in SSE 14.0 mph 24.0 mph 53% 0.00 in
15:08 75.4 °F 56.6 °F 29.39 in SSE 13.0 mph 18.0 mph 52% 0.00 in
15:13 75.6 °F 56.8 °F 29.39 in SSE 14.0 mph 21.0 mph 52% 0.00 in
15:18 75.7 °F 56.3 °F 29.39 in SSE 14.0 mph 27.0 mph 51% 0.00 in
15:23 76.0 °F 57.7 °F 29.38 in South 11.0 mph 20.0 mph 53% 0.00 in
15:28 76.1 °F 56.7 °F 29.38 in SE 15.0 mph 23.0 mph 51% 0.00 in
15:33 76.3 °F 56.3 °F 29.38 in SW 14.0 mph 20.0 mph 50% 0.00 in
15:38 76.6 °F 57.1 °F 29.37 in South 15.0 mph 21.0 mph 51% 0.00 in
15:43 76.9 °F 57.4 °F 29.37 in SSW 9.0 mph 21.0 mph 51% 0.00 in
15:48 77.0 °F 55.8 °F 29.37 in SSE 9.0 mph 23.0 mph 48% 0.00 in
15:53 77.3 °F 56.1 °F 29.37 in SSW 14.0 mph 17.0 mph 48% 0.00 in
15:58 77.7 °F 55.3 °F 29.37 in SE 17.0 mph 20.0 mph 46% 0.00 in
16:03 78.3 °F 54.6 °F 29.37 in SSW 8.0 mph 16.0 mph 44% 0.00 in
16:09 78.8 °F 51.8 °F 29.37 in SSW 22.0 mph 23.0 mph 39% 0.00 in
16:14 79.2 °F 50.7 °F 29.37 in South 4.0 mph 20.0 mph 37% 0.00 in
16:19 79.2 °F 52.8 °F 29.38 in SSW 9.0 mph 24.0 mph 40% 0.00 in
16:24 79.1 °F 49.9 °F 29.37 in SW 17.0 mph 27.0 mph 36% 0.00 in
16:29 78.8 °F 50.4 °F 29.37 in SSE 11.0 mph 26.0 mph 37% 0.00 in
16:34 78.7 °F 51.0 °F 29.37 in SSE 13.0 mph 19.0 mph 38% 0.00 in
16:39 78.6 °F 50.9 °F 29.38 in SW 16.0 mph 29.0 mph 38% 0.00 in
16:44 78.2 °F 51.9 °F 29.38 in SW 16.0 mph 26.0 mph 40% 0.00 in
16:49 77.8 °F 52.2 °F 29.38 in SSW 8.0 mph 20.0 mph 41% 0.00 in
16:54 77.3 °F 51.8 °F 29.38 in South 12.0 mph 21.0 mph 41% 0.00 in
16:59 77.3 °F 52.5 °F 29.37 in South 20.0 mph 25.0 mph 42% 0.00 in
17:04 77.4 °F 52.5 °F 29.38 in South 12.0 mph 17.0 mph 42% 0.00 in
17:09 77.7 °F 53.5 °F 29.38 in SSE 12.0 mph 24.0 mph 43% 0.00 in
17:14 77.4 °F 53.8 °F 29.38 in SSW 12.0 mph 23.0 mph 44% 0.00 in
17:19 77.3 °F 54.3 °F 29.38 in SSW 14.0 mph 20.0 mph 45% 0.00 in
17:24 77.1 °F 54.2 °F 29.37 in SSW 11.0 mph 21.0 mph 45% 0.00 in
17:29 76.7 °F 54.4 °F 29.37 in SSE 11.0 mph 18.0 mph 46% 0.00 in
17:34 76.5 °F 54.8 °F 29.37 in SE 9.0 mph 22.0 mph 47% 0.00 in
17:39 76.3 °F 55.2 °F 29.37 in SSW 12.0 mph 24.0 mph 48% 0.00 in
17:44 76.1 °F 55.6 °F 29.37 in South 13.0 mph 20.0 mph 49% 0.00 in
17:49 76.1 °F 55.6 °F 29.37 in SSE 7.0 mph 20.0 mph 49% 0.00 in
17:54 76.2 °F 55.7 °F 29.37 in SE 10.0 mph 18.0 mph 49% 0.00 in
17:59 76.1 °F 55.6 °F 29.37 in South 6.0 mph 16.0 mph 49% 0.00 in
18:04 76.1 °F 56.1 °F 29.37 in SSE 10.0 mph 17.0 mph 50% 0.00 in
18:09 75.8 °F 55.9 °F 29.37 in SSE 9.0 mph 15.0 mph 50% 0.00 in
18:14 75.5 °F 56.1 °F 29.37 in SSE 11.0 mph 14.0 mph 51% 0.00 in
18:19 75.1 °F 55.8 °F 29.38 in SSW 8.0 mph 14.0 mph 51% 0.00 in
18:24 74.7 °F 55.9 °F 29.38 in SE 10.0 mph 13.0 mph 52% 0.00 in
18:29 74.4 °F 56.2 °F 29.38 in South 7.0 mph 10.0 mph 53% 0.00 in
18:34 74.0 °F 56.3 °F 29.38 in SSE 7.0 mph 13.0 mph 54% 0.00 in
18:39 74.0 °F 56.3 °F 29.39 in SSW 10.0 mph 15.0 mph 54% 0.00 in
18:44 73.9 °F 56.2 °F 29.39 in SSW 14.0 mph 14.0 mph 54% 0.00 in
18:49 73.7 °F 56.5 °F 29.39 in SSE 5.0 mph 10.0 mph 55% 0.00 in
18:55 73.2 °F 56.1 °F 29.39 in SSE 5.0 mph 8.0 mph 55% 0.00 in
19:00 72.6 °F 56.5 °F 29.40 in SSE 5.0 mph 8.0 mph 57% 0.00 in
19:05 72.2 °F 56.6 °F 29.40 in SSE 9.0 mph 9.0 mph 58% 0.00 in
19:09 72.1 °F 56.5 °F 29.40 in South 5.0 mph 9.0 mph 58% 0.00 in
19:15 71.8 °F 56.7 °F 29.40 in SSE 8.0 mph 9.0 mph 59% 0.00 in
19:20 71.7 °F 56.6 °F 29.40 in SSE 5.0 mph 12.0 mph 59% 0.00 in
19:25 71.5 °F 56.9 °F 29.40 in South 5.0 mph 9.0 mph 60% 0.00 in
19:30 71.1 °F 56.5 °F 29.40 in SSE 6.0 mph 9.0 mph 60% 0.00 in
19:35 70.9 °F 56.3 °F 29.40 in SSW 9.0 mph 9.0 mph 60% 0.00 in
19:40 71.0 °F 56.4 °F 29.40 in SE 4.0 mph 10.0 mph 60% 0.00 in
19:45 70.9 °F 56.3 °F 29.40 in South 6.0 mph 8.0 mph 60% 0.00 in
19:50 71.0 °F 56.4 °F 29.41 in SSW 8.0 mph 10.0 mph 60% 0.00 in
19:55 71.2 °F 56.2 °F 29.41 in SSE 11.0 mph 12.0 mph 59% 0.00 in
20:00 71.4 °F 56.3 °F 29.41 in SSE 8.0 mph 12.0 mph 59% 0.00 in
20:05 71.4 °F 56.3 °F 29.41 in South 6.0 mph 11.0 mph 59% 0.00 in
20:10 71.4 °F 56.3 °F 29.41 in South 7.0 mph 8.0 mph 59% 0.00 in
20:15 71.5 °F 56.4 °F 29.41 in South 5.0 mph 9.0 mph 59% 0.00 in
20:20 71.5 °F 56.4 °F 29.41 in South 7.0 mph 12.0 mph 59% 0.00 in
20:25 71.4 °F 56.8 °F 29.42 in SSW 6.0 mph 8.0 mph 60% 0.00 in
20:30 71.2 °F 56.6 °F 29.42 in South 4.0 mph 9.0 mph 60% 0.00 in
20:35 71.1 °F 57.0 °F 29.42 in SSE 4.0 mph 8.0 mph 61% 0.00 in
20:40 70.9 °F 56.8 °F 29.42 in SW 3.0 mph 7.0 mph 61% 0.00 in
20:45 70.4 °F 56.8 °F 29.42 in South 3.0 mph 4.0 mph 62% 0.00 in
20:46 70.4 °F 56.8 °F 29.42 in South 2.0 mph 4.0 mph 62% 0.00 in
20:51 70.0 °F 56.8 °F 29.43 in South 2.0 mph 4.0 mph 63% 0.00 in
20:56 69.5 °F 56.8 °F 29.43 in SE 4.0 mph 5.0 mph 64% 0.00 in
21:01 69.2 °F 56.5 °F 29.43 in South 2.0 mph 4.0 mph 64% 0.00 in
21:06 68.5 °F 56.3 °F 29.43 in SSE 2.0 mph 4.0 mph 65% 0.00 in
21:11 67.9 °F 56.5 °F 29.43 in SSE 5.0 mph 5.0 mph 67% 0.00 in
21:16 67.5 °F 57.0 °F 29.43 in SSE 3.0 mph 5.0 mph 69% 0.00 in
21:21 67.5 °F 57.0 °F 29.44 in SSE 2.0 mph 3.0 mph 69% 0.00 in
21:26 67.3 °F 56.8 °F 29.43 in SSE 3.0 mph 5.0 mph 69% 0.00 in
21:31 66.8 °F 57.1 °F 29.44 in SSE 3.0 mph 5.0 mph 71% 0.00 in
21:36 66.9 °F 57.2 °F 29.44 in SSE 2.0 mph 4.0 mph 71% 0.00 in
21:41 67.0 °F 57.3 °F 29.44 in SSE 3.0 mph 4.0 mph 71% 0.00 in
21:46 66.8 °F 57.1 °F 29.44 in SE 3.0 mph 5.0 mph 71% 0.00 in
21:51 66.8 °F 57.5 °F 29.44 in SSW 3.0 mph 6.0 mph 72% 0.00 in
21:56 67.1 °F 57.8 °F 29.45 in SSE 4.0 mph 6.0 mph 72% 0.00 in
22:01 67.5 °F 57.8 °F 29.45 in South 5.0 mph 9.0 mph 71% 0.00 in
22:06 67.8 °F 57.7 °F 29.45 in SE 5.0 mph 10.0 mph 70% 0.00 in
22:11 68.1 °F 58.0 °F 29.45 in South 7.0 mph 9.0 mph 70% 0.00 in
22:16 68.3 °F 57.8 °F 29.45 in South 5.0 mph 10.0 mph 69% 0.00 in
22:21 68.5 °F 57.9 °F 29.45 in SSW 5.0 mph 10.0 mph 69% 0.00 in
22:26 68.4 °F 57.8 °F 29.45 in SSW 4.0 mph 8.0 mph 69% 0.00 in
22:31 68.3 °F 57.8 °F 29.45 in SSW 7.0 mph 11.0 mph 69% 0.00 in
22:36 68.5 °F 57.9 °F 29.45 in SSE 4.0 mph 14.0 mph 69% 0.00 in
22:41 68.5 °F 57.9 °F 29.45 in SSW 7.0 mph 10.0 mph 69% 0.00 in
22:46 68.7 °F 58.1 °F 29.45 in SSW 9.0 mph 11.0 mph 69% 0.00 in
22:51 68.7 °F 58.1 °F 29.45 in SSW 8.0 mph 10.0 mph 69% 0.00 in
22:57 68.8 °F 58.2 °F 29.46 in SSW 7.0 mph 13.0 mph 69% 0.00 in
23:02 69.0 °F 58.4 °F 29.46 in SSW 9.0 mph 12.0 mph 69% 0.00 in
23:07 69.1 °F 58.5 °F 29.46 in South 4.0 mph 9.0 mph 69% 0.00 in
23:12 69.1 °F 58.5 °F 29.46 in SSE 8.0 mph 10.0 mph 69% 0.00 in
23:17 69.1 °F 58.9 °F 29.46 in SSW 7.0 mph 16.0 mph 70% 0.00 in
23:22 69.2 °F 59.0 °F 29.46 in SSE 9.0 mph 11.0 mph 70% 0.00 in
23:27 69.3 °F 59.1 °F 29.46 in SSW 6.0 mph 12.0 mph 70% 0.00 in
23:32 69.4 °F 59.2 °F 29.46 in SSE 9.0 mph 12.0 mph 70% 0.00 in
23:37 69.5 °F 59.7 °F 29.46 in South 11.0 mph 12.0 mph 71% 0.00 in
23:42 69.5 °F 59.7 °F 29.46 in SSW 6.0 mph 12.0 mph 71% 0.00 in
23:47 69.6 °F 60.2 °F 29.47 in South 6.0 mph 11.0 mph 72% 0.00 in
23:52 69.5 °F 60.1 °F 29.47 in SSW 9.0 mph 13.0 mph 72% 0.00 in
23:57 69.7 °F 60.3 °F 29.47 in SSW 10.0 mph 13.0 mph 72% 0.00 in
Compliments of Weather Underground